Koninklijk Nederlands Meteorologisch Instituut; Ministerie van Verkeer en Waterstaat

 
Weer
Nederlandse vliegveldverwachtingen (TAF)
ZCZC
FT241100 EHAM     AMSTERDAM/SCHIPHOL   NLD   -3 m.
TAF EHAM 241114Z 2412/2518 19013KT 6000 BKN007
    TEMPO 2412/2417 4000 -RADZ
    BECMG 2417/2420 19007KT -RADZ
    TEMPO 2420/2511 2500 RADZ SCT003 BKN004
    PROB30 TEMPO 2502/2508 SCT001 BKN002
    BECMG 2509/2512 27007KT 9999 NSW BKN020
    BECMG 2515/2518 22005KT=

ZCZC
FT241100 EHGG     GRONINGEN/EELDE   NLD   5 m.
TAF EHGG 241110Z 2412/2518 20010KT 9999 BKN015
    PROB40 TEMPO 2412/2421 5000 -DZRA SCT006 BKN008
    BECMG 2421/2424 3500 DZRA BR BKN005
    BECMG 2504/2506 2000 BR BKN003
    BECMG 2510/2512 5000 SCT004 BKN008
    BECMG 2511/2513 25007KT 9999 SCT010 BKN025=

ZCZC
FT241100 EHRD     ROTTERDAM/THE HAGUE AIRPORT   NLD   -5 m.
TAF EHRD 241116Z 2412/2518 19013KT 6000 BKN007
    TEMPO 2412/2417 3500 -RADZ
    BECMG 2417/2420 19007KT -RADZ
    TEMPO 2420/2511 2500 RADZ SCT003 BKN004
    PROB30 TEMPO 2502/2508 SCT001 BKN002
    BECMG 2509/2512 27007KT 9999 NSW BKN020
    BECMG 2515/2518 22005KT=

ZCZC
FT241100 EHBK     MAASTRICHT/MAASTRICHT-AACHEN   NLD   114 m.
TAF EHBK 241111Z 2412/2518 20009KT 9999 BKN035
    PROB40 TEMPO 2412/2509 7000 -RADZ SCT020 BKN030
    PROB40 2506/2510 3500 DZRA BR BKN012
    BECMG 2510/2512 23006KT=

ZCZC
FT241100 EHEH     EINDHOVEN/EINDHOVEN   NLD   22 m.
TAF EHEH 241132Z 2412/2518 19010KT 9999 -RA SCT020 BKN040
    BECMG 2500/2502 SCT012 BKN015
    PROB30 TEMPO 2500/2504 4000 -RA -SHRA SCT010 BKN015
    FEW030CB
    BECMG 2503/2506 SCT006 BKN010
    BECMG 2512/2515 SCT030 NSW=

ZCZC
FC241200 EHWO     WOENSDRECHT/WOENSDRECHT   NLD   19 m.
TAF COR EHWO 241250Z 2409/2421 19010KT 9999 FEW020 SCT030
    BKN045
    TEMPO 2409/2416 SCT018 BKN022
    PROB30 TEMPO 2409/2414 3500 -DZRA SCT010 BKN018
    BECMG 2412/2418 SCT012 BKN018 CNL 241445Z=

ZCZC
FC241200 EHVK     VOLKEL/VOLKEL   NLD   21 m.
TAF COR EHVK 241254Z 2409/2421 18010KT 9999 FEW020 BKN035
    CNL 241400Z=

ZCZC
FC241200 EHLW     LEEUWARDEN/LEEUWARDEN   NLD   1 m.
TAF EHLW 241213Z 2413/2501 18012KT 8000 FEW008 SCT015 BKN020
    TEMPO 2413/2501 3500 DZRA BKN005 BKN008=

ZCZC
FC241200 EHGR     GILZE-RIJEN/GILZE-RIJEN   NLD   14 m.
TAF COR EHGR 241254Z 2409/2421 19010KT 9999 FEW020 BKN035
    PROB40 TEMPO 2409/2417 FEW010 SCT018 BKN020
    BECMG 2415/2419 FEW010 SCT015 BKN020 CNL 241430Z=

ZCZC
FC241300 EHKD     DE KOOY/DE KOOY   NLD   1 m.
TAF EHKD 241209Z 2413/2501 18012KT 8000 SCT008 SCT010 BKN030
    TEMPO 2413/2501 3000 DZRA BKN005 BKN008=